Terminal Aerodrome Forecast
Issued by NWS

Home | Current Version | Previous Version | Text Only | Print | Product List | Glossary On
Versions: 1 2 3 4 5 6 7 8 9 10 11 12 13 14 15 16 17 18 19 20 21 22 23 24
000
FTUS45 KGJT 132329
TAFVEL
TAF
KVEL 132329Z 1400/1424 00000KT P6SM FEW120
     FM140300 03009KT P6SM BKN060 OVC080
     FM141000 01009KT P6SM FEW080 SCT130
     FM141500 36005KT P6SM FEW250
     FM142000 09004KT P6SM FEW250=

USA.gov is the U.S. government's official web portal to all federal, state and local government web resources and services.